createdAt,value
2018-02-09T00:00:09.223Z,1014.63
2018-02-09T00:01:09.005Z,1014.62
2018-02-09T00:02:09.134Z,1014.65
2018-02-09T00:03:08.937Z,1014.63
2018-02-09T00:04:09.047Z,1014.65
2018-02-09T00:05:08.872Z,1014.66
2018-02-09T00:06:08.954Z,1014.65
2018-02-09T00:07:08.806Z,1014.69
2018-02-09T00:08:08.969Z,1014.67
2018-02-09T00:09:08.745Z,1014.68
2018-02-09T00:10:08.880Z,1014.64
2018-02-09T00:11:08.674Z,1014.66
2018-02-09T00:12:08.792Z,1014.59
2018-02-09T00:13:08.614Z,1014.57
2018-02-09T00:14:08.703Z,1014.60
2018-02-09T00:15:08.538Z,1014.59
2018-02-09T00:16:08.716Z,1014.60
2018-02-09T00:17:08.482Z,1014.62
2018-02-09T00:18:08.630Z,1014.61
2018-02-09T00:19:08.419Z,1014.58
2018-02-09T00:20:08.541Z,1014.61
2018-02-09T00:21:08.347Z,1014.60
2018-02-09T00:22:08.451Z,1014.59
2018-02-09T00:23:08.290Z,1014.58
2018-02-09T00:24:08.269Z,1014.56
2018-02-09T00:25:08.223Z,1014.60
2018-02-09T00:26:08.378Z,1014.56
2018-02-09T00:27:08.162Z,1014.58
2018-02-09T00:28:08.288Z,1014.54
2018-02-09T00:29:08.093Z,1014.58
2018-02-09T00:30:08.201Z,1014.51
2018-02-09T00:31:08.029Z,1014.50
2018-02-09T00:32:08.111Z,1014.54
2018-02-09T00:33:07.959Z,1014.53
2018-02-09T00:34:08.124Z,1014.54
2018-02-09T00:35:07.895Z,1014.50
2018-02-09T00:36:08.041Z,1014.51
2018-02-09T00:37:07.824Z,1014.46
2018-02-09T00:38:07.949Z,1014.49
2018-02-09T00:39:07.765Z,1014.50
2018-02-09T00:40:07.870Z,1014.49
2018-02-09T00:41:07.696Z,1014.46
2018-02-09T00:42:07.876Z,1014.47
2018-02-09T00:43:07.630Z,1014.46
2018-02-09T00:44:07.682Z,1014.42
2018-02-09T00:45:07.566Z,1014.42
2018-02-09T00:46:07.593Z,1014.45
2018-02-09T00:47:07.503Z,1014.41
2018-02-09T00:48:07.512Z,1014.45
2018-02-09T00:49:07.439Z,1014.42
2018-02-09T00:50:07.522Z,1014.47
2018-02-09T00:51:07.369Z,1014.40
2018-02-09T00:52:07.431Z,1014.39
2018-02-09T00:53:07.308Z,1014.36
2018-02-09T00:54:07.343Z,1014.37
2018-02-09T00:55:07.238Z,1014.34
2018-02-09T00:56:07.256Z,1014.32
2018-02-09T00:57:07.174Z,1014.30
2018-02-09T00:58:07.271Z,1014.29
2018-02-09T00:59:07.106Z,1014.29
2018-02-09T01:00:07.184Z,1014.30
2018-02-09T01:01:07.042Z,1014.30
2018-02-09T01:02:07.093Z,1014.30
2018-02-09T01:03:06.976Z,1014.34
2018-02-09T01:04:07.006Z,1014.30
2018-02-09T01:05:06.915Z,1014.31
2018-02-09T01:06:06.916Z,1014.32
2018-02-09T01:07:06.845Z,1014.30
2018-02-09T01:08:06.939Z,1014.32
2018-02-09T01:09:06.777Z,1014.28
2018-02-09T01:10:06.845Z,1014.37
2018-02-09T01:11:06.710Z,1014.29
2018-02-09T01:12:06.755Z,1014.34
2018-02-09T01:13:06.646Z,1014.33
2018-02-09T01:14:06.664Z,1014.33
2018-02-09T01:15:06.579Z,1014.32
2018-02-09T01:16:06.677Z,1014.32
2018-02-09T01:17:06.511Z,1014.31
2018-02-09T01:18:06.591Z,1014.37
2018-02-09T01:19:06.451Z,1014.31
2018-02-09T01:20:06.502Z,1014.28
2018-02-09T01:21:06.409Z,1014.27
2018-02-09T01:22:06.411Z,1014.26
2018-02-09T01:23:06.319Z,1014.24
2018-02-09T01:24:06.424Z,1014.23
2018-02-09T01:25:06.248Z,1014.24
2018-02-09T01:26:06.338Z,1014.26
2018-02-09T01:27:06.188Z,1014.26
2018-02-09T01:28:06.250Z,1014.20
2018-02-09T01:29:06.118Z,1014.24
2018-02-09T01:30:06.160Z,1014.24
2018-02-09T01:31:06.051Z,1014.26
2018-02-09T01:32:06.178Z,1014.24
2018-02-09T01:33:05.992Z,1014.20
2018-02-09T01:34:06.087Z,1014.26
2018-02-09T01:35:05.926Z,1014.25
2018-02-09T01:36:05.997Z,1014.22
2018-02-09T01:37:05.854Z,1014.22
2018-02-09T01:38:05.908Z,1014.21
2018-02-09T01:39:05.789Z,1014.20
2018-02-09T01:40:05.821Z,1014.21
2018-02-09T01:41:05.724Z,1014.21
2018-02-09T01:42:05.834Z,1014.19
2018-02-09T01:43:05.657Z,1014.19
2018-02-09T01:44:05.747Z,1014.17
2018-02-09T01:45:05.596Z,1014.18
2018-02-09T01:46:05.659Z,1014.18
2018-02-09T01:47:05.528Z,1014.16
2018-02-09T01:48:05.567Z,1014.18
2018-02-09T01:49:05.461Z,1014.14
2018-02-09T01:50:05.581Z,1014.18
2018-02-09T01:51:05.398Z,1014.16
2018-02-09T01:52:05.496Z,1014.15
2018-02-09T01:53:05.330Z,1014.15
2018-02-09T01:54:05.408Z,1014.15
2018-02-09T01:55:05.264Z,1014.15
2018-02-09T01:56:05.324Z,1014.11
2018-02-09T01:57:05.196Z,1014.06
2018-02-09T01:58:05.334Z,1014.05
2018-02-09T01:59:05.134Z,1014.06
2018-02-09T02:00:05.244Z,1014.00
2018-02-09T02:01:05.073Z,1013.98
2018-02-09T02:02:05.157Z,1013.97
2018-02-09T02:03:05.002Z,1013.98
2018-02-09T02:04:05.077Z,1013.93
2018-02-09T02:05:04.935Z,1013.95
2018-02-09T02:06:05.079Z,1013.93
2018-02-09T02:07:04.870Z,1013.96
2018-02-09T02:08:04.991Z,1013.93
2018-02-09T02:09:04.803Z,1013.95
2018-02-09T02:10:04.909Z,1013.90
2018-02-09T02:11:04.736Z,1013.94
2018-02-09T02:12:04.819Z,1013.89
2018-02-09T02:13:04.674Z,1013.92
2018-02-09T02:14:04.771Z,1013.88
2018-02-09T02:15:04.623Z,1013.85
2018-02-09T02:16:04.738Z,1013.86
2018-02-09T02:17:04.544Z,1013.83
2018-02-09T02:18:04.650Z,1013.84
2018-02-09T02:19:04.476Z,1013.84
2018-02-09T02:20:04.564Z,1013.80
2018-02-09T02:21:04.411Z,1013.80
2018-02-09T02:22:04.475Z,1013.76
2018-02-09T02:23:04.344Z,1013.79
2018-02-09T02:24:04.491Z,1013.77
2018-02-09T02:25:04.280Z,1013.73
2018-02-09T02:26:04.401Z,1013.72
2018-02-09T02:27:04.213Z,1013.74
2018-02-09T02:28:04.314Z,1013.75
2018-02-09T02:29:04.152Z,1013.72
2018-02-09T02:30:04.227Z,1013.71
2018-02-09T02:31:04.082Z,1013.73
2018-02-09T02:32:04.234Z,1013.72
2018-02-09T02:33:04.020Z,1013.69
2018-02-09T02:34:04.153Z,1013.71
2018-02-09T02:35:03.953Z,1013.68
2018-02-09T02:36:04.061Z,1013.66
2018-02-09T02:37:03.884Z,1013.67
2018-02-09T02:38:03.972Z,1013.63
2018-02-09T02:39:03.822Z,1013.63
2018-02-09T02:40:03.988Z,1013.61
2018-02-09T02:41:03.757Z,1013.60
2018-02-09T02:42:03.906Z,1013.59
2018-02-09T02:43:03.690Z,1013.56
2018-02-09T02:44:03.806Z,1013.54
2018-02-09T02:45:03.638Z,1013.52
2018-02-09T02:46:03.720Z,1013.51
2018-02-09T02:47:03.556Z,1013.53
2018-02-09T02:48:03.733Z,1013.52
2018-02-09T02:49:03.492Z,1013.50
2018-02-09T02:50:03.646Z,1013.47
2018-02-09T02:51:03.443Z,1013.49
2018-02-09T02:52:03.558Z,1013.48
2018-02-09T02:53:03.364Z,1013.50
2018-02-09T02:54:03.470Z,1013.42
2018-02-09T02:55:03.295Z,1013.46
2018-02-09T02:56:03.379Z,1013.45
2018-02-09T02:57:03.231Z,1013.40
2018-02-09T02:58:03.392Z,1013.43
2018-02-09T02:59:03.170Z,1013.39
2018-02-09T03:00:03.199Z,1013.39
2018-02-09T03:01:03.101Z,1013.43
2018-02-09T03:02:03.213Z,1013.37
2018-02-09T03:03:03.035Z,1013.38
2018-02-09T03:04:03.125Z,1013.38
2018-02-09T03:05:02.969Z,1013.37
2018-02-09T03:06:03.143Z,1013.35
2018-02-09T03:07:02.900Z,1013.30
2018-02-09T03:08:03.051Z,1013.31
2018-02-09T03:09:02.838Z,1013.30
2018-02-09T03:10:02.860Z,1013.30
2018-02-09T03:11:02.775Z,1013.28
2018-02-09T03:12:02.775Z,1013.23
2018-02-09T03:13:02.708Z,1013.30
2018-02-09T03:14:02.801Z,1013.22
2018-02-09T03:15:02.642Z,1013.22
2018-02-09T03:16:02.698Z,1013.22
2018-02-09T03:17:02.574Z,1013.22
2018-02-09T03:18:02.609Z,1013.24
2018-02-09T03:19:02.509Z,1013.23
2018-02-09T03:20:02.522Z,1013.24
2018-02-09T03:21:02.442Z,1013.23
2018-02-09T03:22:02.538Z,1013.23
2018-02-09T03:23:02.377Z,1013.21
2018-02-09T03:24:02.445Z,1013.17
2018-02-09T03:25:02.312Z,1013.18
2018-02-09T03:26:02.357Z,1013.16
2018-02-09T03:27:02.247Z,1013.12
2018-02-09T03:28:02.270Z,1013.14
2018-02-09T03:29:02.183Z,1013.09
2018-02-09T03:30:02.281Z,1013.11
2018-02-09T03:31:02.139Z,1013.07
2018-02-09T03:32:02.200Z,1013.08
2018-02-09T03:33:02.051Z,1013.06
2018-02-09T03:34:02.134Z,1013.09
2018-02-09T03:35:02.000Z,1013.05
2018-02-09T03:36:02.017Z,1013.01
2018-02-09T03:37:01.917Z,1012.96
2018-02-09T03:38:01.926Z,1012.98
2018-02-09T03:39:01.853Z,1012.96
2018-02-09T03:40:01.942Z,1012.99
2018-02-09T03:41:01.820Z,1012.98
2018-02-09T03:42:01.852Z,1012.99
2018-02-09T03:43:01.724Z,1012.98
2018-02-09T03:44:01.732Z,1012.98
2018-02-09T03:45:01.657Z,1012.97
2018-02-09T03:46:01.676Z,1012.94
2018-02-09T03:47:01.591Z,1012.91
2018-02-09T03:48:01.690Z,1012.98
2018-02-09T03:49:01.528Z,1012.92
2018-02-09T03:50:01.603Z,1012.94
2018-02-09T03:51:01.463Z,1012.94
2018-02-09T03:52:01.514Z,1012.91
2018-02-09T03:53:01.397Z,1012.87
2018-02-09T03:54:01.385Z,1012.86
2018-02-09T03:55:01.330Z,1012.86
2018-02-09T03:56:01.400Z,1012.89
2018-02-09T03:57:01.269Z,1012.83
2018-02-09T03:58:01.350Z,1012.79
2018-02-09T03:59:01.203Z,1012.77
2018-02-09T04:00:01.219Z,1012.82
2018-02-09T04:01:01.136Z,1012.75
2018-02-09T04:02:01.172Z,1012.77
2018-02-09T04:03:01.075Z,1012.74
2018-02-09T04:04:01.187Z,1012.68
2018-02-09T04:05:01.005Z,1012.68
2018-02-09T04:06:01.098Z,1012.70
2018-02-09T04:07:00.943Z,1012.68
2018-02-09T04:08:01.009Z,1012.71
2018-02-09T04:09:00.875Z,1012.65
2018-02-09T04:10:00.922Z,1012.66
2018-02-09T04:11:00.806Z,1012.67
2018-02-09T04:12:00.934Z,1012.68
2018-02-09T04:13:00.748Z,1012.70
2018-02-09T04:14:00.795Z,1012.70
2018-02-09T04:15:00.677Z,1012.71
2018-02-09T04:16:00.760Z,1012.76
2018-02-09T04:17:00.612Z,1012.77
2018-02-09T04:18:00.670Z,1012.74
2018-02-09T04:19:00.559Z,1012.70
2018-02-09T04:20:00.685Z,1012.71
2018-02-09T04:21:00.481Z,1012.75
2018-02-09T04:22:00.596Z,1012.72
2018-02-09T04:23:00.418Z,1012.69
2018-02-09T04:24:00.506Z,1012.73
2018-02-09T04:25:00.350Z,1012.71
2018-02-09T04:26:00.422Z,1012.68
2018-02-09T04:27:00.285Z,1012.68
2018-02-09T04:28:00.329Z,1012.66
2018-02-09T04:29:00.227Z,1012.64
2018-02-09T04:30:00.392Z,1012.63
2018-02-09T04:31:00.154Z,1012.63
2018-02-09T04:32:00.258Z,1012.61
2018-02-09T04:33:00.092Z,1012.61
2018-02-09T04:34:00.170Z,1012.62
2018-02-09T04:35:00.027Z,1012.59
2018-02-09T04:36:00.080Z,1012.57
2018-02-09T04:36:59.959Z,1012.60
2018-02-09T04:38:00.093Z,1012.51
2018-02-09T04:38:59.900Z,1012.54
2018-02-09T04:40:00.008Z,1012.49
2018-02-09T04:40:59.831Z,1012.48
2018-02-09T04:41:59.914Z,1012.47
2018-02-09T04:42:59.761Z,1012.41
2018-02-09T04:43:59.827Z,1012.43
2018-02-09T04:44:59.701Z,1012.40
2018-02-09T04:45:59.840Z,1012.44
2018-02-09T04:46:59.635Z,1012.44
2018-02-09T04:47:59.751Z,1012.46
2018-02-09T04:48:59.567Z,1012.50
2018-02-09T04:49:59.663Z,1012.48
2018-02-09T04:50:59.502Z,1012.44
2018-02-09T04:51:59.574Z,1012.46
2018-02-09T04:52:59.433Z,1012.39
2018-02-09T04:53:59.588Z,1012.44
2018-02-09T04:54:59.371Z,1012.39
2018-02-09T04:55:59.497Z,1012.36
2018-02-09T04:56:59.304Z,1012.36
2018-02-09T04:57:59.412Z,1012.31
2018-02-09T04:58:59.238Z,1012.35
2018-02-09T04:59:59.321Z,1012.32
2018-02-09T05:00:59.173Z,1012.33
2018-02-09T05:01:59.335Z,1012.35
2018-02-09T05:02:59.107Z,1012.31
2018-02-09T05:03:59.249Z,1012.35
2018-02-09T05:04:59.045Z,1012.26
2018-02-09T05:05:59.159Z,1012.28
2018-02-09T05:06:58.973Z,1012.31
2018-02-09T05:07:59.070Z,1012.28
2018-02-09T05:08:58.912Z,1012.27
2018-02-09T05:09:58.984Z,1012.24
2018-02-09T05:10:58.844Z,1012.20
2018-02-09T05:11:58.997Z,1012.25
2018-02-09T05:12:58.781Z,1012.23
2018-02-09T05:13:58.908Z,1012.20
2018-02-09T05:14:58.717Z,1012.24
2018-02-09T05:15:58.817Z,1012.27
2018-02-09T05:16:58.646Z,1012.26
2018-02-09T05:17:58.734Z,1012.23
2018-02-09T05:18:58.584Z,1012.26
2018-02-09T05:19:58.747Z,1012.24
2018-02-09T05:20:58.519Z,1012.23
2018-02-09T05:21:58.658Z,1012.25
2018-02-09T05:22:58.449Z,1012.20
2018-02-09T05:23:58.569Z,1012.27
2018-02-09T05:24:58.386Z,1012.21
2018-02-09T05:25:58.480Z,1012.17
2018-02-09T05:26:58.321Z,1012.20
2018-02-09T05:27:58.492Z,1012.21
2018-02-09T05:28:58.252Z,1012.19
2018-02-09T05:29:58.406Z,1012.14
2018-02-09T05:30:58.190Z,1012.15
2018-02-09T05:31:58.318Z,1012.18
2018-02-09T05:32:58.123Z,1012.15
2018-02-09T05:33:58.222Z,1012.14
2018-02-09T05:34:58.063Z,1012.14
2018-02-09T05:35:58.137Z,1012.16
2018-02-09T05:36:57.996Z,1012.16
2018-02-09T05:37:58.051Z,1012.10
2018-02-09T05:38:57.929Z,1012.11
2018-02-09T05:39:57.965Z,1012.08
2018-02-09T05:40:57.860Z,1012.09
2018-02-09T05:41:57.874Z,1012.11
2018-02-09T05:42:57.794Z,1012.12
2018-02-09T05:43:57.784Z,1012.06
2018-02-09T05:44:57.725Z,1012.07
2018-02-09T05:45:57.798Z,1012.02
2018-02-09T05:46:57.661Z,1012.04
2018-02-09T05:47:57.712Z,1012.06
2018-02-09T05:48:57.595Z,1012.03
2018-02-09T05:49:57.625Z,1012.03
2018-02-09T05:50:57.527Z,1012.00
2018-02-09T05:51:57.532Z,1012.02
2018-02-09T05:52:57.463Z,1011.97
2018-02-09T05:53:57.545Z,1011.98
2018-02-09T05:54:57.395Z,1011.92
2018-02-09T05:55:57.456Z,1011.91
2018-02-09T05:56:57.332Z,1011.93
2018-02-09T05:57:57.367Z,1011.94
2018-02-09T05:58:57.270Z,1011.89
2018-02-09T05:59:57.280Z,1011.84
2018-02-09T06:00:57.200Z,1011.81
2018-02-09T06:01:57.293Z,1011.87
2018-02-09T06:02:57.133Z,1011.77
2018-02-09T06:03:57.204Z,1011.81
2018-02-09T06:04:57.067Z,1011.75
2018-02-09T06:05:57.118Z,1011.77
2018-02-09T06:06:57.000Z,1011.81
2018-02-09T06:07:57.030Z,1011.83
2018-02-09T06:08:56.931Z,1011.77
2018-02-09T06:09:57.040Z,1011.79
2018-02-09T06:10:56.866Z,1011.76
2018-02-09T06:11:56.954Z,1011.77
2018-02-09T06:12:56.808Z,1011.74
2018-02-09T06:13:56.868Z,1011.71
2018-02-09T06:14:56.732Z,1011.73
2018-02-09T06:15:56.784Z,1011.73
2018-02-09T06:16:56.671Z,1011.72
2018-02-09T06:17:56.689Z,1011.73
2018-02-09T06:18:56.597Z,1011.72
2018-02-09T06:19:56.701Z,1011.69
2018-02-09T06:20:56.538Z,1011.68
2018-02-09T06:21:56.616Z,1011.65
2018-02-09T06:22:56.469Z,1011.65
2018-02-09T06:23:56.526Z,1011.68
2018-02-09T06:24:56.400Z,1011.66
2018-02-09T06:25:56.438Z,1011.67
2018-02-09T06:26:56.339Z,1011.66
2018-02-09T06:27:56.453Z,1011.70
2018-02-09T06:28:56.271Z,1011.66
2018-02-09T06:29:56.364Z,1011.68
2018-02-09T06:30:56.210Z,1011.64
2018-02-09T06:31:56.274Z,1011.68
2018-02-09T06:32:56.139Z,1011.62
2018-02-09T06:33:56.185Z,1011.64
2018-02-09T06:34:56.076Z,1011.63
2018-02-09T06:35:56.237Z,1011.60
2018-02-09T06:36:56.006Z,1011.57
2018-02-09T06:37:56.111Z,1011.59
2018-02-09T06:38:55.940Z,1011.57
2018-02-09T06:39:56.022Z,1011.56
2018-02-09T06:40:55.872Z,1011.53
2018-02-09T06:41:55.934Z,1011.50
2018-02-09T06:42:55.808Z,1011.55
2018-02-09T06:43:55.847Z,1011.54
2018-02-09T06:44:55.735Z,1011.51
2018-02-09T06:45:55.863Z,1011.51
2018-02-09T06:46:55.671Z,1011.49
2018-02-09T06:47:55.770Z,1011.50
2018-02-09T06:48:55.608Z,1011.50
2018-02-09T06:49:55.683Z,1011.48
2018-02-09T06:50:55.551Z,1011.51
2018-02-09T06:51:55.597Z,1011.47
2018-02-09T06:52:55.472Z,1011.47
2018-02-09T06:53:55.624Z,1011.51
2018-02-09T06:54:55.408Z,1011.44
2018-02-09T06:55:55.536Z,1011.56
2018-02-09T06:56:55.341Z,1011.51
2018-02-09T06:57:55.429Z,1011.49
2018-02-09T06:58:55.273Z,1011.48
2018-02-09T06:59:55.338Z,1011.49
2018-02-09T07:00:55.210Z,1011.44
2018-02-09T07:01:55.255Z,1011.45
2018-02-09T07:02:55.137Z,1011.41
2018-02-09T07:03:55.265Z,1011.42
2018-02-09T07:04:55.071Z,1011.40
2018-02-09T07:05:55.113Z,1011.37
2018-02-09T07:06:55.003Z,1011.36
2018-02-09T07:07:55.089Z,1011.34
2018-02-09T07:08:54.938Z,1011.35
2018-02-09T07:09:55.029Z,1011.34
2018-02-09T07:10:54.869Z,1011.34
2018-02-09T07:11:55.022Z,1011.32
2018-02-09T07:12:54.802Z,1011.34
2018-02-09T07:13:54.926Z,1011.35
2018-02-09T07:14:54.737Z,1011.28
2018-02-09T07:15:54.839Z,1011.29
2018-02-09T07:16:54.725Z,1011.29
2018-02-09T07:17:54.751Z,1011.25
2018-02-09T07:18:54.600Z,1011.28
2018-02-09T07:19:54.662Z,1011.31
2018-02-09T07:20:54.537Z,1011.33
2018-02-09T07:21:54.673Z,1011.30
2018-02-09T07:22:54.468Z,1011.34
2018-02-09T07:23:54.587Z,1011.29
2018-02-09T07:24:54.457Z,1011.32
2018-02-09T07:25:54.420Z,1011.32
2018-02-09T07:26:54.330Z,1011.36
2018-02-09T07:27:54.406Z,1011.30
2018-02-09T07:28:54.265Z,1011.32
2018-02-09T07:29:54.425Z,1011.26
2018-02-09T07:30:54.201Z,1011.27
2018-02-09T07:31:54.337Z,1011.20
2018-02-09T07:32:54.147Z,1011.24
2018-02-09T07:33:54.250Z,1011.26
2018-02-09T07:34:54.066Z,1011.26
2018-02-09T07:35:54.158Z,1011.24
2018-02-09T07:36:54.000Z,1011.23
2018-02-09T07:37:54.072Z,1011.23
2018-02-09T07:38:53.931Z,1011.20
2018-02-09T07:39:54.088Z,1011.20
2018-02-09T07:40:53.864Z,1011.21
2018-02-09T07:41:54.000Z,1011.17
2018-02-09T07:42:53.798Z,1011.14
2018-02-09T07:43:53.911Z,1011.16
2018-02-09T07:44:53.733Z,1011.18
2018-02-09T07:45:53.820Z,1011.22
2018-02-09T07:46:53.666Z,1011.17
2018-02-09T07:47:53.834Z,1011.16
2018-02-09T07:48:53.597Z,1011.19
2018-02-09T07:49:53.735Z,1011.14
2018-02-09T07:50:53.530Z,1011.17
2018-02-09T07:51:53.656Z,1011.12
2018-02-09T07:52:53.464Z,1011.15
2018-02-09T07:53:53.568Z,1011.17
2018-02-09T07:54:53.396Z,1011.13
2018-02-09T07:55:53.581Z,1011.18
2018-02-09T07:56:53.349Z,1011.17
2018-02-09T07:57:53.492Z,1011.19
2018-02-09T07:58:53.263Z,1011.17
2018-02-09T07:59:54.420Z,1011.15
2018-02-09T08:00:53.199Z,1011.12
2018-02-09T08:01:53.316Z,1011.15
2018-02-09T08:02:53.132Z,1011.18
2018-02-09T08:03:53.226Z,1011.13
2018-02-09T08:04:53.065Z,1011.13
2018-02-09T08:05:53.141Z,1011.11
2018-02-09T08:06:52.997Z,1011.09
2018-02-09T08:07:53.056Z,1011.16
2018-02-09T08:08:52.931Z,1011.17
2018-02-09T08:09:52.953Z,1011.17
2018-02-09T08:10:52.868Z,1011.14
2018-02-09T08:11:52.873Z,1011.13
2018-02-09T08:12:52.800Z,1011.17
2018-02-09T08:13:52.887Z,1011.19
2018-02-09T08:14:52.731Z,1011.15
2018-02-09T08:15:52.798Z,1011.18
2018-02-09T08:16:52.666Z,1011.14
2018-02-09T08:17:52.727Z,1011.16
2018-02-09T08:18:52.598Z,1011.11
2018-02-09T08:19:52.568Z,1011.14
2018-02-09T08:20:52.538Z,1011.17
2018-02-09T08:21:52.635Z,1011.14
2018-02-09T08:22:52.473Z,1011.10
2018-02-09T08:23:52.522Z,1011.13
2018-02-09T08:24:52.411Z,1011.11
2018-02-09T08:25:52.370Z,1011.11
2018-02-09T08:26:52.445Z,1011.13
2018-02-09T08:27:52.306Z,1011.07
2018-02-09T08:28:52.350Z,1011.09
2018-02-09T08:29:52.237Z,1011.13
2018-02-09T08:30:52.262Z,1011.10
2018-02-09T08:31:52.173Z,1011.06
2018-02-09T08:32:52.176Z,1011.09
2018-02-09T08:33:52.114Z,1011.05
2018-02-09T08:34:52.186Z,1011.04
2018-02-09T08:35:52.047Z,1011.02
2018-02-09T08:36:52.093Z,1011.02
2018-02-09T08:37:51.987Z,1010.98
2018-02-09T08:38:52.008Z,1010.98
2018-02-09T08:39:51.913Z,1010.97
2018-02-09T08:40:51.909Z,1011.01
2018-02-09T08:41:51.848Z,1011.04
2018-02-09T08:42:51.927Z,1011.00
2018-02-09T08:43:51.788Z,1010.95
2018-02-09T08:44:51.838Z,1011.00
2018-02-09T08:45:51.721Z,1010.94
2018-02-09T08:46:51.748Z,1010.98
2018-02-09T08:47:51.655Z,1010.94
2018-02-09T08:48:51.657Z,1010.88
2018-02-09T08:49:51.592Z,1010.90
2018-02-09T08:50:51.670Z,1010.85
2018-02-09T08:51:51.525Z,1010.89
2018-02-09T08:52:51.582Z,1010.85
2018-02-09T08:53:51.459Z,1010.84
2018-02-09T08:54:51.487Z,1010.89
2018-02-09T08:55:51.395Z,1010.82
2018-02-09T08:56:51.397Z,1010.84
2018-02-09T08:57:51.329Z,1010.83
2018-02-09T08:58:51.308Z,1010.82
2018-02-09T08:59:51.267Z,1010.77
2018-02-09T09:00:51.324Z,1010.76
2018-02-09T09:01:51.200Z,1010.74
2018-02-09T09:02:51.235Z,1010.76
2018-02-09T09:03:51.136Z,1010.76
2018-02-09T09:04:51.145Z,1010.79
2018-02-09T09:05:51.074Z,1010.81
2018-02-09T09:06:51.156Z,1010.81
2018-02-09T09:07:51.012Z,1010.79
2018-02-09T09:08:51.071Z,1010.79
2018-02-09T09:09:50.947Z,1010.76
2018-02-09T09:10:50.974Z,1010.84
2018-02-09T09:11:50.885Z,1010.75
2018-02-09T09:12:50.885Z,1010.77
2018-02-09T09:13:50.819Z,1010.69
2018-02-09T09:14:50.899Z,1010.70
2018-02-09T09:15:50.755Z,1010.74
2018-02-09T09:16:50.811Z,1010.75
2018-02-09T09:17:50.692Z,1010.71
2018-02-09T09:18:50.719Z,1010.74
2018-02-09T09:19:50.626Z,1010.69
2018-02-09T09:20:50.628Z,1010.69
2018-02-09T09:21:50.564Z,1010.71
2018-02-09T09:22:50.643Z,1010.72
2018-02-09T09:23:50.503Z,1010.67
2018-02-09T09:24:50.550Z,1010.69
2018-02-09T09:25:50.439Z,1010.69
2018-02-09T09:26:50.465Z,1010.70
2018-02-09T09:27:50.381Z,1010.69
2018-02-09T09:28:50.373Z,1010.64
2018-02-09T09:29:50.314Z,1010.69
2018-02-09T09:30:50.383Z,1010.66
2018-02-09T09:31:50.252Z,1010.75
2018-02-09T09:32:50.302Z,1010.92
2018-02-09T09:33:50.192Z,1010.95
2018-02-09T09:34:50.205Z,1011.02
2018-02-09T09:35:50.129Z,1011.06
2018-02-09T09:36:50.116Z,1011.06
2018-02-09T09:37:50.067Z,1011.08
2018-02-09T09:38:50.129Z,1011.12
2018-02-09T09:39:50.013Z,1011.14
2018-02-09T09:40:50.038Z,1011.07
2018-02-09T09:41:49.954Z,1011.08
2018-02-09T09:42:49.950Z,1011.15
2018-02-09T09:43:49.909Z,1011.17
2018-02-09T09:44:50.005Z,1011.12
2018-02-09T09:45:49.844Z,1011.23
2018-02-09T09:46:49.870Z,1011.21
2018-02-09T09:47:49.788Z,1011.25
2018-02-09T09:48:49.882Z,1011.26
2018-02-09T09:49:49.744Z,1011.21
2018-02-09T09:50:49.793Z,1011.23
2018-02-09T09:51:49.694Z,1011.27
2018-02-09T09:52:49.701Z,1011.24
2018-02-09T09:53:49.647Z,1011.22
2018-02-09T09:54:49.712Z,1011.27
2018-02-09T09:55:49.602Z,1011.22
2018-02-09T09:56:49.629Z,1011.22
2018-02-09T09:57:49.555Z,1011.30
2018-02-09T09:58:49.637Z,1011.40
2018-02-09T09:59:49.510Z,1011.45
2018-02-09T10:00:49.549Z,1011.47
2018-02-09T10:01:49.464Z,1011.46
2018-02-09T10:02:49.561Z,1011.45
2018-02-09T10:03:49.421Z,1011.37
2018-02-09T10:04:49.470Z,1011.41
2018-02-09T10:05:49.380Z,1011.40
2018-02-09T10:06:49.465Z,1011.39
2018-02-09T10:07:49.336Z,1011.37
2018-02-09T10:08:49.485Z,1011.35
2018-02-09T10:09:49.295Z,1011.36
2018-02-09T10:10:49.271Z,1011.40
2018-02-09T10:11:49.254Z,1011.39
2018-02-09T10:12:49.420Z,1011.33
2018-02-09T10:13:49.210Z,1011.35
2018-02-09T10:14:49.317Z,1011.40
2018-02-09T10:15:49.170Z,1011.36
2018-02-09T10:16:49.154Z,1011.37
2018-02-09T10:17:49.127Z,1011.36
2018-02-09T10:18:49.241Z,1011.36
2018-02-09T10:19:49.087Z,1011.41
2018-02-09T10:20:49.261Z,1011.38
2018-02-09T10:21:49.045Z,1011.37
2018-02-09T10:22:49.173Z,1011.36
2018-02-09T10:23:49.004Z,1011.35
2018-02-09T10:24:49.185Z,1011.43
2018-02-09T10:25:48.968Z,1011.39
2018-02-09T10:26:49.099Z,1011.40
2018-02-09T10:27:48.928Z,1011.40
2018-02-09T10:28:49.113Z,1011.36
2018-02-09T10:29:48.885Z,1011.32
2018-02-09T10:30:49.026Z,1011.37
2018-02-09T10:31:48.894Z,1011.42
2018-02-09T10:32:49.036Z,1011.42
2018-02-09T10:33:48.813Z,1011.42
2018-02-09T10:34:48.966Z,1011.48
2018-02-09T10:35:48.769Z,1011.48
2018-02-09T10:36:48.860Z,1011.46
2018-02-09T10:37:48.728Z,1011.46
2018-02-09T10:38:48.770Z,1011.50
2018-02-09T10:39:48.692Z,1011.51
2018-02-09T10:40:48.785Z,1011.45
2018-02-09T10:41:48.649Z,1011.45
2018-02-09T10:42:48.716Z,1011.49
2018-02-09T10:43:48.612Z,1011.53
2018-02-09T10:44:48.710Z,1011.46
2018-02-09T10:45:48.580Z,1011.45
2018-02-09T10:46:48.623Z,1011.48
2018-02-09T10:47:48.539Z,1011.43
2018-02-09T10:48:48.634Z,1011.40
2018-02-09T10:49:48.497Z,1011.34
2018-02-09T10:50:48.548Z,1011.40
2018-02-09T10:51:48.464Z,1011.28
2018-02-09T10:52:48.563Z,1011.25
2018-02-09T10:53:48.424Z,1011.24
2018-02-09T10:54:48.472Z,1011.16
2018-02-09T10:55:48.387Z,1011.13
2018-02-09T10:56:48.487Z,1011.15
2018-02-09T10:57:48.349Z,1011.21
2018-02-09T10:58:48.403Z,1011.23
2018-02-09T10:59:48.310Z,1011.29
2018-02-09T11:00:48.410Z,1011.32
2018-02-09T11:01:48.316Z,1011.30
2018-02-09T11:02:48.324Z,1011.32
2018-02-09T11:03:48.238Z,1011.27
2018-02-09T11:04:48.336Z,1011.23
2018-02-09T11:05:48.204Z,1011.22
2018-02-09T11:06:48.250Z,1011.22
2018-02-09T11:07:48.165Z,1011.24
2018-02-09T11:08:48.266Z,1011.23
2018-02-09T11:09:48.126Z,1011.22
2018-02-09T11:10:48.173Z,1011.14
2018-02-09T11:11:48.092Z,1011.20
2018-02-09T11:12:48.188Z,1011.20
2018-02-09T11:13:48.059Z,1011.20
2018-02-09T11:14:48.096Z,1011.16
2018-02-09T11:15:48.020Z,1011.13
2018-02-09T11:16:48.112Z,1011.08
2018-02-09T11:17:47.983Z,1011.00
2018-02-09T11:18:48.025Z,1011.01
2018-02-09T11:19:47.948Z,1011.06
2018-02-09T11:20:48.039Z,1011.08
2018-02-09T11:21:47.916Z,1011.07
2018-02-09T11:22:47.950Z,1010.96
2018-02-09T11:23:47.874Z,1010.99
2018-02-09T11:24:47.967Z,1010.99
2018-02-09T11:25:47.837Z,1010.98
2018-02-09T11:26:47.875Z,1010.95
2018-02-09T11:27:47.799Z,1010.95
2018-02-09T11:28:47.887Z,1010.95
2018-02-09T11:29:47.772Z,1011.07
2018-02-09T11:30:47.903Z,1011.13
2018-02-09T11:31:47.725Z,1011.10
2018-02-09T11:32:49.862Z,1011.12
2018-02-09T11:33:47.686Z,1011.07
2018-02-09T11:34:49.786Z,1011.02
2018-02-09T11:35:47.659Z,1011.04
2018-02-09T11:36:48.762Z,1011.09
2018-02-09T11:37:47.611Z,1011.08
2018-02-09T11:38:47.759Z,1011.09
2018-02-09T11:39:47.586Z,1011.04
2018-02-09T11:40:47.671Z,1011.02
2018-02-09T11:41:47.536Z,1011.05
2018-02-09T11:42:47.678Z,1011.02
2018-02-09T11:43:47.498Z,1011.06
2018-02-09T11:44:47.589Z,1011.02
2018-02-09T11:45:47.462Z,1010.96
2018-02-09T11:46:47.603Z,1010.99
2018-02-09T11:47:47.426Z,1011.02
2018-02-09T11:48:47.516Z,1011.05
2018-02-09T11:49:47.390Z,1011.05
2018-02-09T11:50:47.530Z,1010.93
2018-02-09T11:51:47.354Z,1010.96
2018-02-09T11:52:47.442Z,1010.99
2018-02-09T11:53:47.316Z,1010.92
2018-02-09T11:54:47.453Z,1010.91
2018-02-09T11:55:47.274Z,1010.91
2018-02-09T11:56:47.364Z,1010.96
2018-02-09T11:57:47.246Z,1011.06
2018-02-09T11:58:47.377Z,1011.02
2018-02-09T11:59:47.206Z,1010.99
2018-02-09T12:00:47.292Z,1010.87
2018-02-09T12:01:47.177Z,1010.85
2018-02-09T12:02:47.306Z,1010.79
2018-02-09T12:03:47.131Z,1010.74
2018-02-09T12:04:47.221Z,1010.75